VKG293 LCLK-EKBI
Flight info
| Callsign | VKG293 |
|---|---|
| Flight time | N/A |
| Altitude | 32000 |
| Route | PHA M31 GENOS DCT PEDER DCT EVENO DCT BENEM UN127 ULKAN DCT RIKSO UN128 LMO DCT EVIVI DCT EDIKA DCT BAVGA DCT OKANA DCT NII DCT XENIT DCT BGD DCT TONDO DCT TEKNO DCT BEGLA DCT WGM DCT LOKVU DCT LALUK DCT MILGU DCT SOGMA M748 BUMIL DCT PIZID M105 AMRAK DCT LOKSA |
| Aircraft | A321/M-SDE2E3FGHIJ1RWXYZ/LB2 |
Departure
| Time | N/A |
|---|---|
| Airport | Larnaca International Airport (LCLK) |
Arrival
| Time | 2026-05-04 15:13 |
|---|---|
| Airport | Billund Airport (EKBI) |
| Time | Latitude | Longitude | Altitude | Speed | Heading |
|---|---|---|---|---|---|
| 2026-05-04 12:54 | 42.79827 | 22.52585 | 34118 ft | 424 kts | 336° |
| 2026-05-04 12:54 | 42.84977 | 22.48622 | 34127 ft | 426 kts | 326° |
| 2026-05-04 12:55 | 42.89351 | 22.43192 | 34138 ft | 426 kts | 320° |
| 2026-05-04 12:55 | 42.93647 | 22.37611 | 34135 ft | 425 kts | 320° |
| 2026-05-04 12:56 | 42.97927 | 22.32043 | 34132 ft | 424 kts | 320° |
| 2026-05-04 12:56 | 43.02206 | 22.26454 | 34107 ft | 425 kts | 320° |
| 2026-05-04 12:57 | 43.06447 | 22.20913 | 34123 ft | 423 kts | 320° |
| 2026-05-04 12:57 | 43.10704 | 22.15342 | 34134 ft | 422 kts | 320° |
| 2026-05-04 12:58 | 43.14943 | 22.09778 | 34138 ft | 422 kts | 320° |
| 2026-05-04 12:58 | 43.19173 | 22.04203 | 34121 ft | 421 kts | 320° |
| 2026-05-04 12:59 | 43.23377 | 21.98658 | 34142 ft | 420 kts | 320° |
| 2026-05-04 12:59 | 43.27594 | 21.93093 | 34145 ft | 421 kts | 320° |
| 2026-05-04 13:00 | 43.31788 | 21.87535 | 34141 ft | 421 kts | 320° |
| 2026-05-04 13:00 | 43.36242 | 21.82383 | 34136 ft | 417 kts | 327° |
| 2026-05-04 13:01 | 43.40898 | 21.77605 | 34139 ft | 417 kts | 327° |
| 2026-05-04 13:01 | 43.45520 | 21.72841 | 34133 ft | 417 kts | 327° |
| 2026-05-04 13:02 | 43.50173 | 21.68046 | 34129 ft | 417 kts | 327° |
| 2026-05-04 13:02 | 43.54821 | 21.63238 | 34122 ft | 418 kts | 327° |
| 2026-05-04 13:03 | 43.59445 | 21.58441 | 34089 ft | 418 kts | 326° |
| 2026-05-04 13:03 | 43.64095 | 21.53616 | 34115 ft | 417 kts | 326° |
| 2026-05-04 13:04 | 43.68728 | 21.48799 | 34127 ft | 416 kts | 326° |
| 2026-05-04 13:04 | 43.73359 | 21.43969 | 34127 ft | 416 kts | 326° |
| 2026-05-04 13:05 | 43.77986 | 21.39128 | 34125 ft | 416 kts | 326° |
| 2026-05-04 13:05 | 43.82588 | 21.34316 | 34112 ft | 416 kts | 326° |
| 2026-05-04 13:06 | 43.87203 | 21.29476 | 34127 ft | 415 kts | 326° |
| 2026-05-04 13:06 | 43.91813 | 21.24627 | 34136 ft | 414 kts | 326° |
| 2026-05-04 13:07 | 43.96381 | 21.19818 | 34137 ft | 414 kts | 326° |
| 2026-05-04 13:07 | 44.00969 | 21.14979 | 34129 ft | 414 kts | 326° |
| 2026-05-04 13:08 | 44.05567 | 21.10124 | 34160 ft | 415 kts | 326° |
| 2026-05-04 13:08 | 44.07873 | 21.07686 | 34372 ft | 416 kts | 326° |
| 2026-05-04 13:08 | 44.10182 | 21.05240 | 34612 ft | 417 kts | 325° |
| 2026-05-04 13:08 | 44.12491 | 21.02789 | 34840 ft | 417 kts | 325° |
| 2026-05-04 13:09 | 44.14777 | 21.00359 | 35071 ft | 418 kts | 325° |
| 2026-05-04 13:09 | 44.17088 | 20.97901 | 35280 ft | 418 kts | 325° |
| 2026-05-04 13:09 | 44.19404 | 20.95437 | 35514 ft | 418 kts | 325° |
| 2026-05-04 13:09 | 44.21721 | 20.92972 | 35738 ft | 419 kts | 325° |
| 2026-05-04 13:10 | 44.24020 | 20.90523 | 35907 ft | 420 kts | 325° |
| 2026-05-04 13:10 | 44.26339 | 20.88046 | 36097 ft | 419 kts | 324° |
| 2026-05-04 13:10 | 44.28650 | 20.85571 | 36134 ft | 418 kts | 324° |
| 2026-05-04 13:11 | 44.33272 | 20.80631 | 36133 ft | 418 kts | 325° |
| 2026-05-04 13:11 | 44.37968 | 20.75824 | 36133 ft | 417 kts | 327° |
| 2026-05-04 13:12 | 44.42704 | 20.71106 | 36130 ft | 417 kts | 327° |
| 2026-05-04 13:12 | 44.47401 | 20.66394 | 36125 ft | 417 kts | 326° |
| 2026-05-04 13:13 | 44.52114 | 20.61625 | 36125 ft | 417 kts | 326° |
| 2026-05-04 13:13 | 44.56787 | 20.56865 | 36126 ft | 417 kts | 326° |
| 2026-05-04 13:14 | 44.61494 | 20.52058 | 36130 ft | 418 kts | 326° |
| 2026-05-04 13:14 | 44.66198 | 20.47249 | 36135 ft | 418 kts | 326° |
| 2026-05-04 13:15 | 44.70894 | 20.42447 | 36116 ft | 418 kts | 326° |
| 2026-05-04 13:15 | 44.75618 | 20.37608 | 36130 ft | 419 kts | 326° |
| 2026-05-04 13:16 | 44.80304 | 20.32788 | 36131 ft | 419 kts | 326° |
| 2026-05-04 13:16 | 44.85285 | 20.28567 | 36133 ft | 417 kts | 333° |
| 2026-05-04 13:17 | 44.89535 | 20.25340 | 36133 ft | 417 kts | 333° |
| 2026-05-04 13:17 | 44.94649 | 20.21439 | 36120 ft | 417 kts | 333° |
| 2026-05-04 13:18 | 44.99768 | 20.17525 | 36124 ft | 418 kts | 333° |
| 2026-05-04 13:18 | 45.04856 | 20.13632 | 36111 ft | 418 kts | 333° |
| 2026-05-04 13:19 | 45.09979 | 20.09706 | 36120 ft | 418 kts | 333° |
| 2026-05-04 13:19 | 45.15104 | 20.05774 | 36114 ft | 418 kts | 333° |
| 2026-05-04 13:20 | 45.20225 | 20.01830 | 36108 ft | 418 kts | 333° |
| 2026-05-04 13:20 | 45.25341 | 19.97877 | 36113 ft | 419 kts | 332° |
| 2026-05-04 13:21 | 45.30434 | 19.93937 | 36113 ft | 418 kts | 332° |
| 2026-05-04 13:21 | 45.35561 | 19.89969 | 36115 ft | 418 kts | 332° |
| 2026-05-04 13:22 | 45.40676 | 19.85996 | 36110 ft | 418 kts | 332° |
| 2026-05-04 13:22 | 45.45765 | 19.82037 | 36116 ft | 419 kts | 332° |
| 2026-05-04 13:23 | 45.50888 | 19.78050 | 36101 ft | 418 kts | 332° |
| 2026-05-04 13:23 | 45.55970 | 19.74083 | 36103 ft | 418 kts | 332° |
| 2026-05-04 13:24 | 45.61082 | 19.70076 | 36108 ft | 418 kts | 332° |
| 2026-05-04 13:24 | 45.66175 | 19.66080 | 36111 ft | 418 kts | 332° |
| 2026-05-04 13:25 | 45.73834 | 19.60068 | 36110 ft | 418 kts | 332° |
| 2026-05-04 13:25 | 45.78952 | 19.56037 | 36112 ft | 418 kts | 332° |
| 2026-05-04 13:26 | 45.84023 | 19.52025 | 36098 ft | 418 kts | 332° |
| 2026-05-04 13:26 | 45.89124 | 19.47977 | 36099 ft | 418 kts | 332° |
| 2026-05-04 13:27 | 45.94232 | 19.43926 | 36096 ft | 418 kts | 332° |
| 2026-05-04 13:27 | 45.99307 | 19.39893 | 36099 ft | 419 kts | 332° |
| 2026-05-04 13:28 | 46.04399 | 19.35758 | 36088 ft | 419 kts | 327° |
| 2026-05-04 13:28 | 46.08950 | 19.30554 | 36091 ft | 420 kts | 321° |
| 2026-05-04 13:29 | 46.13467 | 19.25175 | 36085 ft | 420 kts | 321° |
| 2026-05-04 13:29 | 46.17986 | 19.19792 | 36092 ft | 421 kts | 321° |
| 2026-05-04 13:30 | 46.22480 | 19.14420 | 36094 ft | 421 kts | 321° |
| 2026-05-04 13:30 | 46.26995 | 19.09005 | 36078 ft | 421 kts | 321° |
| 2026-05-04 13:31 | 46.31480 | 19.03615 | 36076 ft | 422 kts | 321° |
| 2026-05-04 13:31 | 46.36005 | 18.98159 | 36081 ft | 422 kts | 321° |
| 2026-05-04 13:32 | 46.40519 | 18.92712 | 36084 ft | 422 kts | 321° |
| 2026-05-04 13:32 | 46.45011 | 18.87283 | 36093 ft | 422 kts | 321° |
| 2026-05-04 13:33 | 46.49526 | 18.81816 | 36072 ft | 422 kts | 321° |
| 2026-05-04 13:33 | 46.54053 | 18.76324 | 36071 ft | 423 kts | 321° |
| 2026-05-04 13:34 | 46.58555 | 18.70846 | 36074 ft | 423 kts | 320° |
| 2026-05-04 13:34 | 46.63066 | 18.65329 | 36076 ft | 423 kts | 320° |
| 2026-05-04 13:35 | 46.69819 | 18.57074 | 36075 ft | 423 kts | 320° |
| 2026-05-04 13:36 | 46.74329 | 18.51532 | 36070 ft | 423 kts | 320° |
| 2026-05-04 13:36 | 46.78839 | 18.45980 | 36071 ft | 423 kts | 320° |
| 2026-05-04 13:37 | 46.83320 | 18.40447 | 36073 ft | 423 kts | 320° |
| 2026-05-04 13:37 | 46.87828 | 18.34875 | 36070 ft | 423 kts | 320° |
| 2026-05-04 13:38 | 46.92331 | 18.29309 | 36071 ft | 423 kts | 320° |
| 2026-05-04 13:38 | 46.96810 | 18.23758 | 36068 ft | 423 kts | 320° |
| 2026-05-04 13:39 | 47.01302 | 18.18177 | 36075 ft | 423 kts | 320° |
| 2026-05-04 13:39 | 47.05762 | 18.12609 | 36068 ft | 423 kts | 320° |
| 2026-05-04 13:40 | 47.10252 | 18.06984 | 36068 ft | 423 kts | 320° |
| 2026-05-04 13:40 | 47.14708 | 18.01402 | 36066 ft | 422 kts | 320° |
| 2026-05-04 13:41 | 47.19180 | 17.95797 | 36069 ft | 422 kts | 319° |
| 2026-05-04 13:41 | 47.23618 | 17.90224 | 36064 ft | 421 kts | 319° |
| 2026-05-04 13:42 | 47.30298 | 17.81792 | 36050 ft | 421 kts | 319° |
| 2026-05-04 13:42 | 47.34751 | 17.76135 | 36055 ft | 421 kts | 319° |
| 2026-05-04 13:43 | 47.39176 | 17.70531 | 36047 ft | 422 kts | 319° |
| 2026-05-04 13:43 | 47.43644 | 17.64861 | 36046 ft | 423 kts | 319° |
| 2026-05-04 13:44 | 47.48096 | 17.59178 | 36055 ft | 422 kts | 319° |
| 2026-05-04 13:44 | 47.52519 | 17.53520 | 36049 ft | 422 kts | 319° |
| 2026-05-04 13:45 | 47.56962 | 17.47838 | 36048 ft | 421 kts | 319° |
| 2026-05-04 13:45 | 47.61398 | 17.42156 | 36031 ft | 421 kts | 318° |
| 2026-05-04 13:46 | 47.65727 | 17.36377 | 36017 ft | 421 kts | 316° |
| 2026-05-04 13:46 | 47.69940 | 17.30318 | 36013 ft | 421 kts | 315° |
| 2026-05-04 13:47 | 47.74107 | 17.24255 | 35998 ft | 421 kts | 315° |
| 2026-05-04 13:47 | 47.78321 | 17.18207 | 36006 ft | 421 kts | 315° |
| 2026-05-04 13:48 | 47.82565 | 17.12170 | 35997 ft | 421 kts | 315° |
| 2026-05-04 13:48 | 47.86920 | 17.06372 | 35998 ft | 422 kts | 319° |
| 2026-05-04 13:49 | 47.91460 | 17.00823 | 36004 ft | 422 kts | 320° |
| 2026-05-04 13:49 | 47.96018 | 16.95257 | 36010 ft | 421 kts | 319° |
| 2026-05-04 13:50 | 48.00503 | 16.89636 | 36011 ft | 420 kts | 318° |
| 2026-05-04 13:50 | 48.04943 | 16.84007 | 35996 ft | 420 kts | 318° |
| 2026-05-04 13:51 | 48.09413 | 16.78342 | 36001 ft | 421 kts | 318° |
| 2026-05-04 13:51 | 48.13870 | 16.72699 | 35988 ft | 422 kts | 319° |
| 2026-05-04 13:52 | 48.20582 | 16.64171 | 36000 ft | 422 kts | 318° |
| 2026-05-04 13:53 | 48.25071 | 16.58454 | 35996 ft | 422 kts | 318° |
| 2026-05-04 13:53 | 48.29554 | 16.52720 | 35972 ft | 424 kts | 318° |
| 2026-05-04 13:54 | 48.36390 | 16.44194 | 35956 ft | 429 kts | 320° |
| 2026-05-04 13:55 | 48.43511 | 16.35961 | 35946 ft | 432 kts | 321° |
| 2026-05-04 13:55 | 48.50650 | 16.27594 | 35950 ft | 433 kts | 320° |
| 2026-05-04 13:56 | 48.55386 | 16.21942 | 35956 ft | 433 kts | 320° |
| 2026-05-04 13:57 | 48.62466 | 16.13501 | 35974 ft | 434 kts | 320° |
| 2026-05-04 13:58 | 48.71962 | 16.02169 | 35974 ft | 433 kts | 320° |
| 2026-05-04 13:58 | 48.79025 | 15.93682 | 35975 ft | 433 kts | 320° |
| 2026-05-04 13:59 | 48.83756 | 15.87984 | 35978 ft | 433 kts | 319° |
| 2026-05-04 14:00 | 48.91123 | 15.79957 | 35977 ft | 435 kts | 325° |
| 2026-05-04 14:00 | 48.98763 | 15.72561 | 35979 ft | 435 kts | 325° |
| 2026-05-04 14:01 | 49.03015 | 15.68423 | 35981 ft | 436 kts | 325° |
| 2026-05-04 14:02 | 49.11525 | 15.60138 | 35984 ft | 436 kts | 324° |
| 2026-05-04 14:02 | 49.15790 | 15.55966 | 35989 ft | 436 kts | 324° |
| 2026-05-04 14:03 | 49.20909 | 15.50944 | 35986 ft | 437 kts | 324° |
| 2026-05-04 14:03 | 49.26001 | 15.45946 | 35984 ft | 437 kts | 324° |
| 2026-05-04 14:04 | 49.33695 | 15.38374 | 35988 ft | 437 kts | 324° |
| 2026-05-04 14:04 | 49.38818 | 15.33307 | 35990 ft | 437 kts | 324° |
| 2026-05-04 14:05 | 49.46487 | 15.25702 | 35995 ft | 438 kts | 324° |
| 2026-05-04 14:06 | 49.51613 | 15.20600 | 35993 ft | 437 kts | 324° |
| 2026-05-04 14:06 | 49.56714 | 15.15508 | 35980 ft | 437 kts | 324° |
| 2026-05-04 14:07 | 49.61788 | 15.10432 | 35975 ft | 437 kts | 324° |
| 2026-05-04 14:07 | 49.66914 | 15.05298 | 35989 ft | 437 kts | 324° |
| 2026-05-04 14:08 | 49.71989 | 15.00195 | 35985 ft | 438 kts | 323° |
| 2026-05-04 14:08 | 49.77101 | 14.95043 | 35986 ft | 438 kts | 323° |
| 2026-05-04 14:09 | 49.84774 | 14.87295 | 35982 ft | 439 kts | 323° |
| 2026-05-04 14:10 | 49.92451 | 14.79510 | 35995 ft | 439 kts | 323° |
| 2026-05-04 14:10 | 49.97529 | 14.74340 | 36005 ft | 438 kts | 323° |
| 2026-05-04 14:11 | 50.02631 | 14.69136 | 35988 ft | 439 kts | 323° |
| 2026-05-04 14:11 | 50.10282 | 14.61308 | 35976 ft | 439 kts | 323° |
| 2026-05-04 14:12 | 50.15397 | 14.56039 | 35974 ft | 439 kts | 323° |
| 2026-05-04 14:13 | 50.23028 | 14.48186 | 35975 ft | 439 kts | 323° |
| 2026-05-04 14:13 | 50.28135 | 14.42905 | 35977 ft | 439 kts | 323° |
| 2026-05-04 14:14 | 50.33211 | 14.37632 | 35982 ft | 440 kts | 322° |
| 2026-05-04 14:14 | 50.40888 | 14.29654 | 35980 ft | 440 kts | 322° |
| 2026-05-04 14:15 | 50.51069 | 14.19008 | 35982 ft | 441 kts | 322° |
| 2026-05-04 14:16 | 50.58727 | 14.10986 | 35977 ft | 441 kts | 322° |
| 2026-05-04 14:17 | 50.66391 | 14.02907 | 35986 ft | 441 kts | 322° |
| 2026-05-04 14:18 | 50.74020 | 13.94839 | 35996 ft | 441 kts | 322° |
| 2026-05-04 14:19 | 50.84177 | 13.84003 | 35983 ft | 441 kts | 321° |
| 2026-05-04 14:19 | 50.89224 | 13.78497 | 35984 ft | 440 kts | 321° |
| 2026-05-04 14:20 | 50.94266 | 13.72962 | 35981 ft | 440 kts | 321° |
| 2026-05-04 14:20 | 50.99307 | 13.67424 | 35982 ft | 440 kts | 321° |
| 2026-05-04 14:21 | 51.06842 | 13.59147 | 35991 ft | 440 kts | 321° |
| 2026-05-04 14:21 | 51.11883 | 13.53594 | 35987 ft | 440 kts | 321° |
| 2026-05-04 14:22 | 51.16902 | 13.48051 | 35984 ft | 440 kts | 321° |
| 2026-05-04 14:22 | 51.21933 | 13.42483 | 35987 ft | 440 kts | 320° |
| 2026-05-04 14:23 | 51.29468 | 13.34096 | 35997 ft | 439 kts | 320° |
| 2026-05-04 14:24 | 51.34466 | 13.28512 | 35981 ft | 439 kts | 320° |
| 2026-05-04 14:24 | 51.39491 | 13.22902 | 35975 ft | 439 kts | 320° |
| 2026-05-04 14:25 | 51.44469 | 13.17312 | 35974 ft | 439 kts | 320° |
| 2026-05-04 14:25 | 51.51977 | 13.08858 | 35974 ft | 439 kts | 320° |
| 2026-05-04 14:26 | 51.56995 | 13.03190 | 35985 ft | 440 kts | 320° |
| 2026-05-04 14:26 | 51.62079 | 12.97733 | 35981 ft | 441 kts | 322° |
| 2026-05-04 14:27 | 51.67302 | 12.92470 | 35974 ft | 442 kts | 323° |
| 2026-05-04 14:27 | 51.72515 | 12.87191 | 35971 ft | 442 kts | 322° |
| 2026-05-04 14:28 | 51.77664 | 12.81865 | 35970 ft | 441 kts | 322° |
| 2026-05-04 14:28 | 51.82830 | 12.76466 | 35969 ft | 441 kts | 322° |
| 2026-05-04 14:29 | 51.93113 | 12.65700 | 35984 ft | 441 kts | 322° |
| 2026-05-04 14:30 | 51.98271 | 12.60295 | 35985 ft | 441 kts | 322° |
| 2026-05-04 14:31 | 52.06005 | 12.52166 | 35980 ft | 441 kts | 321° |
| 2026-05-04 14:32 | 52.16262 | 12.41327 | 35987 ft | 440 kts | 321° |
| 2026-05-04 14:32 | 52.21392 | 12.35879 | 35994 ft | 440 kts | 321° |
| 2026-05-04 14:33 | 52.26522 | 12.30415 | 35997 ft | 439 kts | 321° |
| 2026-05-04 14:33 | 52.31645 | 12.24940 | 35997 ft | 439 kts | 321° |
| 2026-05-04 14:34 | 52.36732 | 12.19482 | 35986 ft | 439 kts | 321° |
| 2026-05-04 14:34 | 52.41853 | 12.13980 | 36012 ft | 439 kts | 321° |
| 2026-05-04 14:35 | 52.46961 | 12.08488 | 36002 ft | 438 kts | 321° |
| 2026-05-04 14:35 | 52.52024 | 12.03023 | 36015 ft | 437 kts | 320° |
| 2026-05-04 14:36 | 52.57119 | 11.97505 | 36005 ft | 437 kts | 320° |
| 2026-05-04 14:36 | 52.62162 | 11.92024 | 35998 ft | 437 kts | 320° |
| 2026-05-04 14:37 | 52.67136 | 11.86281 | 36008 ft | 434 kts | 317° |
| 2026-05-04 14:37 | 52.71900 | 11.80164 | 35998 ft | 433 kts | 315° |
| 2026-05-04 14:38 | 52.76601 | 11.74007 | 35991 ft | 433 kts | 316° |
| 2026-05-04 14:38 | 52.81382 | 11.67857 | 35986 ft | 434 kts | 316° |
| 2026-05-04 14:39 | 52.86157 | 11.61784 | 35999 ft | 434 kts | 316° |
| 2026-05-04 14:39 | 52.90947 | 11.55676 | 35985 ft | 435 kts | 316° |
| 2026-05-04 14:40 | 52.98107 | 11.46497 | 35978 ft | 435 kts | 316° |
| 2026-05-04 14:40 | 53.02889 | 11.40327 | 35976 ft | 434 kts | 316° |
| 2026-05-04 14:41 | 53.07632 | 11.34183 | 35950 ft | 428 kts | 316° |
| 2026-05-04 14:42 | 53.17199 | 11.22532 | 35959 ft | 438 kts | 321° |
| 2026-05-04 14:42 | 53.22342 | 11.17025 | 35973 ft | 440 kts | 321° |
| 2026-05-04 14:43 | 53.27483 | 11.11447 | 35961 ft | 440 kts | 321° |
| 2026-05-04 14:43 | 53.32580 | 11.05764 | 35959 ft | 440 kts | 320° |
| 2026-05-04 14:44 | 53.36810 | 11.00993 | 35960 ft | 440 kts | 320° |
| 2026-05-04 14:44 | 53.41899 | 10.95251 | 35966 ft | 440 kts | 320° |
| 2026-05-04 14:45 | 53.46962 | 10.89550 | 35970 ft | 440 kts | 320° |
| 2026-05-04 14:45 | 53.52048 | 10.83800 | 36010 ft | 440 kts | 321° |
| 2026-05-04 14:46 | 53.57149 | 10.78036 | 36011 ft | 440 kts | 321° |
| 2026-05-04 14:46 | 53.62203 | 10.72302 | 36008 ft | 440 kts | 321° |
| 2026-05-04 14:47 | 53.67272 | 10.66508 | 36011 ft | 440 kts | 320° |
| 2026-05-04 14:47 | 53.72353 | 10.60700 | 36016 ft | 439 kts | 320° |
| 2026-05-04 14:48 | 53.77396 | 10.54918 | 36010 ft | 439 kts | 320° |
| 2026-05-04 14:48 | 53.82474 | 10.49090 | 36049 ft | 440 kts | 320° |
| 2026-05-04 14:49 | 53.87501 | 10.43300 | 36026 ft | 439 kts | 320° |
| 2026-05-04 14:49 | 53.92549 | 10.37442 | 36015 ft | 439 kts | 320° |
| 2026-05-04 14:50 | 53.97589 | 10.31574 | 36005 ft | 438 kts | 320° |
| 2026-05-04 14:50 | 54.02594 | 10.25733 | 35993 ft | 438 kts | 320° |
| 2026-05-04 14:51 | 54.07622 | 10.19869 | 36012 ft | 438 kts | 320° |
| 2026-05-04 14:51 | 54.12664 | 10.13990 | 36007 ft | 438 kts | 320° |
| 2026-05-04 14:52 | 54.17675 | 10.08105 | 36011 ft | 438 kts | 320° |
| 2026-05-04 14:52 | 54.22701 | 10.02177 | 36012 ft | 438 kts | 320° |
| 2026-05-04 14:53 | 54.27694 | 9.96274 | 36007 ft | 438 kts | 320° |
| 2026-05-04 14:53 | 54.32721 | 9.90315 | 36008 ft | 438 kts | 320° |
| 2026-05-04 14:54 | 54.37751 | 9.84381 | 35188 ft | 444 kts | 323° |
| 2026-05-04 14:54 | 54.40544 | 9.82157 | 34182 ft | 452 kts | 338° |
| 2026-05-04 14:54 | 54.43676 | 9.81190 | 32551 ft | 462 kts | 347° |
| 2026-05-04 14:55 | 54.46894 | 9.80647 | 30681 ft | 469 kts | 347° |
| 2026-05-04 14:55 | 54.50234 | 9.80128 | 29105 ft | 483 kts | 347° |
| 2026-05-04 14:55 | 54.53589 | 9.79639 | 27781 ft | 478 kts | 348° |
| 2026-05-04 14:55 | 54.56910 | 9.79159 | 26663 ft | 481 kts | 348° |
| 2026-05-04 14:56 | 54.60257 | 9.78649 | 25444 ft | 485 kts | 349° |
| 2026-05-04 14:56 | 54.63635 | 9.78110 | 24290 ft | 488 kts | 349° |
| 2026-05-04 14:56 | 54.67009 | 9.77557 | 23534 ft | 482 kts | 350° |
| 2026-05-04 14:56 | 54.70317 | 9.77015 | 22719 ft | 475 kts | 350° |
| 2026-05-04 14:57 | 54.73578 | 9.76481 | 21807 ft | 463 kts | 350° |
| 2026-05-04 14:57 | 54.76736 | 9.75972 | 20382 ft | 451 kts | 350° |
| 2026-05-04 14:57 | 54.79864 | 9.75462 | 19743 ft | 448 kts | 350° |
| 2026-05-04 14:57 | 54.82958 | 9.74948 | 19296 ft | 443 kts | 350° |
| 2026-05-04 14:58 | 54.86011 | 9.74323 | 18561 ft | 439 kts | 348° |
| 2026-05-04 14:58 | 54.88992 | 9.73590 | 17819 ft | 435 kts | 347° |
| 2026-05-04 14:58 | 54.91975 | 9.72791 | 17109 ft | 430 kts | 347° |
| 2026-05-04 14:58 | 54.94906 | 9.71987 | 16436 ft | 424 kts | 347° |
| 2026-05-04 14:59 | 54.97807 | 9.71198 | 15788 ft | 418 kts | 347° |
| 2026-05-04 14:59 | 55.00668 | 9.70438 | 15154 ft | 413 kts | 347° |
| 2026-05-04 14:59 | 55.06289 | 9.69007 | 13961 ft | 402 kts | 348° |
| 2026-05-04 15:00 | 55.09042 | 9.68322 | 13336 ft | 397 kts | 348° |
| 2026-05-04 15:00 | 55.11758 | 9.67644 | 12781 ft | 390 kts | 348° |
| 2026-05-04 15:00 | 55.14423 | 9.66973 | 12235 ft | 384 kts | 348° |
| 2026-05-04 15:01 | 55.19604 | 9.65659 | 11345 ft | 368 kts | 348° |
| 2026-05-04 15:01 | 55.22106 | 9.65026 | 11194 ft | 353 kts | 347° |
| 2026-05-04 15:01 | 55.24488 | 9.64420 | 11075 ft | 338 kts | 347° |
| 2026-05-04 15:01 | 55.26772 | 9.63837 | 10946 ft | 325 kts | 347° |
| 2026-05-04 15:02 | 55.28946 | 9.63282 | 10819 ft | 312 kts | 347° |
| 2026-05-04 15:02 | 55.31062 | 9.62737 | 10685 ft | 301 kts | 347° |
| 2026-05-04 15:02 | 55.33105 | 9.62212 | 10497 ft | 292 kts | 347° |
| 2026-05-04 15:02 | 55.35092 | 9.61697 | 10347 ft | 286 kts | 347° |
| 2026-05-04 15:03 | 55.37065 | 9.61181 | 10284 ft | 287 kts | 347° |
| 2026-05-04 15:03 | 55.39039 | 9.60664 | 10162 ft | 286 kts | 347° |
| 2026-05-04 15:03 | 55.41014 | 9.60151 | 10061 ft | 286 kts | 347° |
| 2026-05-04 15:03 | 55.42990 | 9.59640 | 9818 ft | 286 kts | 346° |
| 2026-05-04 15:04 | 55.44973 | 9.59125 | 9353 ft | 287 kts | 347° |
| 2026-05-04 15:04 | 55.46951 | 9.58615 | 8858 ft | 288 kts | 347° |
| 2026-05-04 15:04 | 55.48911 | 9.58113 | 8540 ft | 281 kts | 347° |
| 2026-05-04 15:04 | 55.50827 | 9.57626 | 7829 ft | 276 kts | 347° |
| 2026-05-04 15:05 | 55.52694 | 9.57146 | 7338 ft | 274 kts | 347° |
| 2026-05-04 15:05 | 55.54588 | 9.56652 | 6873 ft | 276 kts | 347° |
| 2026-05-04 15:05 | 55.56493 | 9.56156 | 6472 ft | 275 kts | 347° |
| 2026-05-04 15:05 | 55.58380 | 9.55666 | 6012 ft | 276 kts | 348° |
| 2026-05-04 15:06 | 55.60264 | 9.55175 | 5635 ft | 269 kts | 348° |
| 2026-05-04 15:06 | 55.62095 | 9.54696 | 5060 ft | 268 kts | 348° |
| 2026-05-04 15:06 | 55.63953 | 9.54211 | 4523 ft | 270 kts | 348° |
| 2026-05-04 15:07 | 55.67624 | 9.53257 | 3678 ft | 262 kts | 349° |
| 2026-05-04 15:07 | 55.69412 | 9.52790 | 3501 ft | 255 kts | 349° |
| 2026-05-04 15:07 | 55.71131 | 9.52341 | 3423 ft | 244 kts | 349° |
| 2026-05-04 15:07 | 55.72774 | 9.51907 | 3345 ft | 233 kts | 347° |
| 2026-05-04 15:08 | 55.74193 | 9.50841 | 3268 ft | 216 kts | 316° |
| 2026-05-04 15:08 | 55.74934 | 9.48693 | 3201 ft | 200 kts | 283° |
| 2026-05-04 15:08 | 55.74922 | 9.46279 | 3127 ft | 195 kts | 266° |
| 2026-05-04 15:08 | 55.74854 | 9.43967 | 3065 ft | 183 kts | 270° |
| 2026-05-04 15:09 | 55.74806 | 9.41757 | 2926 ft | 174 kts | 270° |
| 2026-05-04 15:09 | 55.74752 | 9.39650 | 2709 ft | 169 kts | 270° |
| 2026-05-04 15:09 | 55.74695 | 9.37594 | 2483 ft | 164 kts | 269° |
| 2026-05-04 15:10 | 55.74585 | 9.33762 | 2088 ft | 148 kts | 269° |
| 2026-05-04 15:10 | 55.74533 | 9.31974 | 1892 ft | 143 kts | 270° |
| 2026-05-04 15:10 | 55.74436 | 9.28620 | 1542 ft | 134 kts | 269° |
| 2026-05-04 15:11 | 55.74386 | 9.26988 | 1366 ft | 131 kts | 269° |
| 2026-05-04 15:11 | 55.74337 | 9.25385 | 1124 ft | 131 kts | 270° |
| 2026-05-04 15:11 | 55.74289 | 9.23771 | 950 ft | 131 kts | 269° |
| 2026-05-04 15:11 | 55.74241 | 9.22143 | 749 ft | 133 kts | 270° |
| 2026-05-04 15:12 | 55.74192 | 9.20518 | 580 ft | 131 kts | 269° |
| 2026-05-04 15:12 | 55.74144 | 9.18900 | 370 ft | 131 kts | 267° |
| 2026-05-04 15:12 | 55.74098 | 9.17277 | 224 ft | 125 kts | 268° |
| 2026-05-04 15:12 | 55.74058 | 9.15939 | 216 ft | 84 kts | 267° |
| 2026-05-04 15:13 | 55.74035 | 9.15227 | 224 ft | 34 kts | 267° |
| 2026-05-04 15:13 | 55.74026 | 9.14947 | 220 ft | 17 kts | 266° |
| 2026-05-04 15:13 | 55.74018 | 9.14691 | 218 ft | 22 kts | 267° |
| 2026-05-04 15:13 | 55.74052 | 9.14501 | 216 ft | 15 kts | 342° |
| 2026-05-04 15:14 | 55.74152 | 9.14488 | 221 ft | 14 kts | 357° |
| 2026-05-04 15:14 | 55.74249 | 9.14479 | 218 ft | 14 kts | 356° |
| 2026-05-04 15:14 | 55.74344 | 9.14469 | 218 ft | 13 kts | 357° |
| 2026-05-04 15:14 | 55.74412 | 9.14471 | 223 ft | 8 kts | 18° |
| 2026-05-04 15:15 | 55.74440 | 9.14539 | 219 ft | 7 kts | 77° |
| 2026-05-04 15:15 | 55.74453 | 9.14613 | 224 ft | 7 kts | 39° |
| 2026-05-04 15:15 | 55.74501 | 9.14621 | 223 ft | 6 kts | 356° |
| 2026-05-04 15:16 | 55.74522 | 9.14619 | 222 ft | 2 kts | 357° |
| 2026-05-04 15:16 | 55.74523 | 9.14619 | 222 ft | 0 kts | 357° |